createdAt,value
2022-09-16T00:00:53.848Z,6.20
2022-09-16T00:03:21.365Z,3.70
2022-09-16T00:05:50.091Z,5.88
2022-09-16T00:08:18.834Z,3.65
2022-09-16T00:10:46.011Z,4.57
2022-09-16T00:13:13.959Z,4.78
2022-09-16T00:15:42.740Z,4.03
2022-09-16T00:18:11.011Z,7.00
2022-09-16T00:20:42.221Z,6.50
2022-09-16T00:23:08.921Z,9.02
2022-09-16T00:25:35.558Z,5.63
2022-09-16T00:28:02.553Z,9.45
2022-09-16T00:30:29.158Z,7.00
2022-09-16T00:32:55.802Z,5.85
2022-09-16T00:35:23.735Z,5.85
2022-09-16T00:37:50.515Z,5.47
2022-09-16T00:40:17.194Z,5.18
2022-09-16T00:42:43.847Z,5.93
2022-09-16T00:45:15.491Z,4.93
2022-09-16T00:47:45.934Z,6.88
2022-09-16T00:50:18.125Z,8.00
2022-09-16T00:52:47.539Z,4.22
2022-09-16T00:55:21.535Z,6.80
2022-09-16T00:57:49.259Z,6.47
2022-09-16T01:00:16.112Z,6.30
2022-09-16T01:02:45.368Z,7.40
2022-09-16T01:05:15.658Z,2.70
2022-09-16T01:07:44.422Z,6.13
2022-09-16T01:10:14.229Z,7.50
2022-09-16T01:12:42.915Z,6.93
2022-09-16T01:15:11.129Z,9.32
2022-09-16T01:17:53.069Z,4.00
2022-09-16T01:20:45.978Z,5.20
2022-09-16T01:23:39.674Z,8.10
2022-09-16T01:26:25.622Z,6.40
2022-09-16T01:29:21.522Z,8.68
2022-09-16T01:31:56.397Z,5.00
2022-09-16T01:34:32.136Z,7.60
2022-09-16T01:37:06.569Z,4.72
2022-09-16T01:39:47.430Z,4.85
2022-09-16T01:42:25.911Z,6.70
2022-09-16T01:45:00.666Z,4.15
2022-09-16T01:47:37.038Z,4.60
2022-09-16T01:50:10.919Z,7.75
2022-09-16T01:52:47.641Z,8.60
2022-09-16T01:55:20.015Z,6.28
2022-09-16T01:57:52.799Z,5.30
2022-09-16T02:00:20.405Z,3.67
2022-09-16T02:02:53.228Z,5.18
2022-09-16T02:05:26.417Z,6.25
2022-09-16T02:07:57.162Z,5.35
2022-09-16T02:10:28.270Z,3.63
2022-09-16T02:12:59.946Z,6.10
2022-09-16T02:15:30.325Z,4.78
2022-09-16T02:18:04.073Z,5.50
2022-09-16T02:20:32.436Z,4.88
2022-09-16T02:23:05.851Z,5.50
2022-09-16T02:25:35.970Z,4.05
2022-09-16T02:28:08.727Z,3.88
2022-09-16T02:30:35.930Z,4.93
2022-09-16T02:33:08.899Z,3.65
2022-09-16T02:35:38.273Z,4.97
2022-09-16T02:38:10.677Z,10.18
2022-09-16T02:43:07.863Z,7.88
2022-09-16T02:45:42.557Z,9.90
2022-09-16T02:48:17.672Z,6.53
2022-09-16T02:50:52.116Z,8.35
2022-09-16T02:53:30.663Z,6.97
2022-09-16T02:56:02.251Z,6.57
2022-09-16T02:58:29.755Z,8.60
2022-09-16T03:00:57.626Z,4.90
2022-09-16T03:03:26.177Z,9.55
2022-09-16T03:06:13.409Z,8.32
2022-09-16T03:08:40.867Z,5.20
2022-09-16T03:11:16.486Z,11.13
2022-09-16T03:13:54.007Z,7.43
2022-09-16T03:16:29.498Z,9.95
2022-09-16T03:19:03.341Z,8.32
2022-09-16T03:21:37.394Z,6.40
2022-09-16T03:24:12.852Z,7.15
2022-09-16T03:26:46.462Z,5.35
2022-09-16T03:29:20.205Z,5.85
2022-09-16T03:31:54.168Z,6.90
2022-09-16T03:34:29.460Z,6.80
2022-09-16T03:37:01.222Z,9.57
2022-09-16T03:39:28.394Z,4.25
2022-09-16T03:41:59.452Z,5.72
2022-09-16T03:44:31.914Z,8.00
2022-09-16T03:46:59.532Z,9.68
2022-09-16T03:49:27.582Z,9.02
2022-09-16T03:51:54.288Z,4.97
2022-09-16T03:54:20.905Z,6.88
2022-09-16T03:56:47.549Z,6.68
2022-09-16T03:59:14.321Z,5.03
2022-09-16T04:01:41.032Z,4.95
2022-09-16T04:04:07.783Z,9.90
2022-09-16T04:06:35.785Z,3.25
2022-09-16T04:09:02.604Z,7.30
2022-09-16T04:11:29.448Z,6.97
2022-09-16T04:13:56.017Z,3.70
2022-09-16T04:16:22.924Z,5.63
2022-09-16T04:18:49.602Z,7.13
2022-09-16T04:21:16.715Z,6.20
2022-09-16T04:23:44.831Z,4.80
2022-09-16T04:26:11.877Z,5.40
2022-09-16T04:28:38.477Z,3.83
2022-09-16T04:31:06.901Z,3.97
2022-09-16T04:33:35.125Z,6.88
2022-09-16T04:36:03.845Z,6.47
2022-09-16T04:38:30.564Z,5.93
2022-09-16T04:41:04.058Z,4.47
2022-09-16T04:43:30.900Z,5.43
2022-09-16T04:45:58.080Z,3.78
2022-09-16T04:48:24.880Z,5.28
2022-09-16T04:50:51.872Z,2.95
2022-09-16T04:53:18.523Z,5.53
2022-09-16T04:55:45.351Z,5.32
2022-09-16T04:58:13.736Z,7.57
2022-09-16T05:00:43.681Z,6.18
2022-09-16T05:03:10.563Z,7.53
2022-09-16T05:05:37.400Z,7.57
2022-09-16T05:08:04.037Z,7.85
2022-09-16T05:10:30.612Z,4.45
2022-09-16T05:12:57.296Z,5.53
2022-09-16T05:15:25.299Z,4.25
2022-09-16T05:17:52.140Z,7.93
2022-09-16T05:20:19.113Z,3.83
2022-09-16T05:22:48.263Z,5.80
2022-09-16T05:25:15.032Z,6.00
2022-09-16T05:27:41.609Z,4.18
2022-09-16T05:30:09.637Z,3.10
2022-09-16T05:32:37.559Z,2.28
2022-09-16T05:35:04.820Z,3.33
2022-09-16T05:37:31.759Z,6.80
2022-09-16T05:39:58.387Z,3.67
2022-09-16T05:42:25.101Z,5.47
2022-09-16T05:44:51.722Z,5.45
2022-09-16T05:47:18.277Z,3.17
2022-09-16T05:49:46.443Z,6.25
2022-09-16T05:52:13.019Z,4.22
2022-09-16T05:54:39.608Z,3.50
2022-09-16T05:57:07.320Z,3.72
2022-09-16T05:59:34.341Z,4.97
2022-09-16T06:02:01.045Z,5.78
2022-09-16T06:04:27.784Z,3.20
2022-09-16T06:06:55.965Z,6.80
2022-09-16T06:09:24.387Z,3.38
2022-09-16T06:11:55.421Z,4.78
2022-09-16T06:14:24.995Z,4.22
2022-09-16T06:16:51.628Z,4.78
2022-09-16T06:19:19.101Z,4.53
2022-09-16T06:21:46.674Z,6.07
2022-09-16T06:24:16.601Z,6.03
2022-09-16T06:26:45.262Z,2.63
2022-09-16T06:29:13.590Z,1.65
2022-09-16T06:31:42.885Z,2.53
2022-09-16T06:34:14.597Z,4.65
2022-09-16T06:36:44.706Z,4.25
2022-09-16T06:39:16.441Z,2.55
2022-09-16T06:41:47.880Z,4.10
2022-09-16T06:44:14.515Z,2.92
2022-09-16T06:46:41.175Z,3.40
2022-09-16T06:49:07.934Z,5.32
2022-09-16T06:51:34.934Z,3.00
2022-09-16T06:54:03.767Z,4.50
2022-09-16T06:56:32.220Z,4.28
2022-09-16T06:58:58.887Z,4.50
2022-09-16T07:01:27.514Z,4.32
2022-09-16T07:03:55.834Z,4.90
2022-09-16T07:06:38.154Z,4.32
2022-09-16T07:09:15.663Z,4.40
2022-09-16T07:11:51.505Z,5.57
2022-09-16T07:14:18.455Z,4.85
2022-09-16T07:16:55.713Z,2.85
2022-09-16T07:19:23.025Z,2.72
2022-09-16T07:21:49.605Z,2.35
2022-09-16T07:24:16.357Z,2.08
2022-09-16T07:26:44.061Z,2.97
2022-09-16T07:29:13.866Z,2.63
2022-09-16T07:31:40.947Z,2.28
2022-09-16T07:34:11.102Z,6.35
2022-09-16T07:36:40.140Z,2.42
2022-09-16T07:39:07.427Z,4.13
2022-09-16T07:41:36.756Z,5.03
2022-09-16T07:44:05.057Z,5.15
2022-09-16T07:46:34.831Z,1.95
2022-09-16T07:49:03.299Z,2.95
2022-09-16T07:51:30.925Z,6.22
2022-09-16T07:53:59.654Z,4.85
2022-09-16T07:56:27.681Z,4.32
2022-09-16T07:58:55.237Z,1.15
2022-09-16T08:01:22.148Z,2.47
2022-09-16T08:03:50.105Z,5.18
2022-09-16T08:06:18.759Z,3.83
2022-09-16T08:08:46.014Z,3.08
2022-09-16T08:11:13.963Z,3.55
2022-09-16T08:13:42.322Z,3.08
2022-09-16T08:16:12.301Z,6.47
2022-09-16T08:18:39.149Z,2.38
2022-09-16T08:21:07.906Z,1.67
2022-09-16T08:23:34.574Z,2.25
2022-09-16T08:26:01.986Z,3.28
2022-09-16T08:28:39.868Z,4.40
2022-09-16T08:31:16.797Z,1.17
2022-09-16T08:33:43.608Z,2.25
2022-09-16T08:36:15.091Z,2.05
2022-09-16T08:38:42.779Z,1.45
2022-09-16T08:41:31.785Z,1.25
2022-09-16T08:44:09.214Z,2.53
2022-09-16T08:46:44.042Z,2.55
2022-09-16T08:49:17.991Z,3.25
2022-09-16T08:51:46.805Z,1.58
2022-09-16T08:54:24.622Z,2.10
2022-09-16T08:56:53.681Z,1.13
2022-09-16T08:59:25.507Z,2.70
2022-09-16T09:02:05.297Z,1.92
2022-09-16T09:04:34.838Z,0.98
2022-09-16T09:07:12.938Z,2.20
2022-09-16T09:09:54.395Z,1.98
2022-09-16T09:12:30.197Z,2.05
2022-09-16T09:15:07.985Z,1.60
2022-09-16T09:17:49.515Z,2.05
2022-09-16T09:20:28.338Z,1.10
2022-09-16T09:23:10.029Z,1.48
2022-09-16T09:25:45.921Z,0.80
2022-09-16T09:28:42.308Z,1.45
2022-09-16T09:31:14.427Z,3.35
2022-09-16T09:36:41.482Z,0.90
2022-09-16T09:39:21.004Z,3.70
2022-09-16T09:41:52.031Z,1.02
2022-09-16T09:44:37.758Z,2.03
2022-09-16T09:47:11.184Z,1.98
2022-09-16T09:49:43.556Z,1.35
2022-09-16T09:52:16.399Z,1.20
2022-09-16T09:54:48.687Z,1.45
2022-09-16T09:57:24.835Z,1.25
2022-09-16T09:59:58.286Z,1.92
2022-09-16T10:02:25.058Z,2.50
2022-09-16T10:04:51.675Z,1.98
2022-09-16T10:07:20.934Z,2.72
2022-09-16T10:09:54.224Z,1.58
2022-09-16T10:12:32.073Z,1.55
2022-09-16T10:14:59.405Z,1.27
2022-09-16T10:17:28.849Z,2.53
2022-09-16T10:19:57.979Z,1.77
2022-09-16T10:22:27.245Z,2.05
2022-09-16T10:24:57.302Z,2.17
2022-09-16T10:27:26.853Z,1.45
2022-09-16T10:30:04.994Z,2.15
2022-09-16T10:32:47.572Z,2.50
2022-09-16T10:35:19.949Z,1.20
2022-09-16T10:37:51.055Z,5.43
2022-09-16T10:40:19.485Z,5.97
2022-09-16T10:42:47.626Z,5.13
2022-09-16T10:45:19.145Z,5.30
2022-09-16T10:47:50.789Z,3.47
2022-09-16T10:50:18.985Z,2.20
2022-09-16T10:52:47.332Z,2.25
2022-09-16T10:55:27.326Z,0.98
2022-09-16T10:58:06.529Z,1.60
2022-09-16T11:00:45.582Z,1.73
2022-09-16T11:03:49.246Z,0.93
2022-09-16T11:06:33.338Z,1.35
2022-09-16T11:09:07.981Z,0.90
2022-09-16T11:11:48.175Z,1.00
2022-09-16T11:14:25.674Z,1.92
2022-09-16T11:17:06.824Z,2.45
2022-09-16T11:22:19.453Z,1.60
2022-09-16T11:25:21.370Z,0.85
2022-09-16T11:27:56.357Z,1.73
2022-09-16T11:30:23.490Z,3.58
2022-09-16T11:36:00.649Z,2.67
2022-09-16T11:38:35.014Z,1.00
2022-09-16T11:41:08.664Z,4.30
2022-09-16T11:43:56.006Z,2.00
2022-09-16T11:46:29.790Z,1.95
2022-09-16T11:49:08.310Z,3.20
2022-09-16T11:51:54.114Z,3.50
2022-09-16T11:54:34.601Z,6.72
2022-09-16T11:57:08.954Z,1.92
2022-09-16T11:59:43.629Z,1.42
2022-09-16T12:02:18.673Z,2.17
2022-09-16T12:04:51.063Z,2.22
2022-09-16T12:09:59.361Z,1.13
2022-09-16T12:12:32.206Z,2.95
2022-09-16T12:15:05.867Z,0.73
2022-09-16T12:17:35.597Z,2.67
2022-09-16T12:20:13.618Z,3.00
2022-09-16T12:22:45.681Z,0.95
2022-09-16T12:27:46.427Z,2.22
2022-09-16T12:30:17.590Z,0.63
2022-09-16T12:33:01.052Z,2.53
2022-09-16T12:38:03.777Z,1.88
2022-09-16T12:40:38.221Z,2.10
2022-09-16T12:43:31.212Z,1.45
2022-09-16T12:46:26.137Z,1.67
2022-09-16T12:49:12.492Z,1.00
2022-09-16T12:51:55.555Z,1.63
2022-09-16T12:55:03.955Z,3.58
2022-09-16T12:57:42.878Z,3.58
2022-09-16T13:00:15.685Z,6.07
2022-09-16T13:02:47.636Z,8.77
2022-09-16T13:07:50.774Z,0.75
2022-09-16T13:13:00.092Z,4.15
2022-09-16T13:15:30.037Z,2.33
2022-09-16T13:18:08.752Z,2.67
2022-09-16T13:20:40.448Z,1.42
2022-09-16T13:23:12.182Z,2.50
2022-09-16T13:25:48.287Z,5.05
2022-09-16T13:28:34.602Z,3.85
2022-09-16T13:31:15.507Z,3.55
2022-09-16T13:33:44.955Z,2.03
2022-09-16T13:36:16.476Z,2.15
2022-09-16T13:38:44.933Z,0.63
2022-09-16T13:41:13.698Z,1.02
2022-09-16T13:43:52.315Z,0.73
2022-09-16T13:46:34.366Z,1.17
2022-09-16T13:49:18.347Z,1.40
2022-09-16T13:51:47.028Z,2.35
2022-09-16T13:54:26.358Z,2.03
2022-09-16T13:57:12.050Z,1.17
2022-09-16T13:59:51.182Z,2.15
2022-09-16T14:02:29.175Z,3.55
2022-09-16T14:05:13.420Z,1.83
2022-09-16T14:07:46.673Z,0.82
2022-09-16T14:10:20.012Z,2.80
2022-09-16T14:12:58.225Z,2.25
2022-09-16T14:15:26.053Z,1.60
2022-09-16T14:17:57.968Z,2.65
2022-09-16T14:20:26.695Z,1.00
2022-09-16T14:23:04.536Z,0.47
2022-09-16T14:25:33.492Z,0.90
2022-09-16T14:28:15.171Z,1.55
2022-09-16T14:30:46.104Z,0.70
2022-09-16T14:33:13.518Z,2.17
2022-09-16T14:35:44.090Z,1.90
2022-09-16T14:38:34.483Z,2.40
2022-09-16T14:41:06.309Z,3.35
2022-09-16T14:43:33.151Z,1.88
2022-09-16T14:46:01.241Z,2.00
2022-09-16T14:48:32.707Z,5.85
2022-09-16T14:51:02.069Z,2.55
2022-09-16T14:53:35.725Z,4.40
2022-09-16T14:56:04.332Z,3.40
2022-09-16T14:58:33.038Z,7.15
2022-09-16T15:01:03.141Z,2.42
2022-09-16T15:03:35.185Z,3.78
2022-09-16T15:06:10.804Z,3.88
2022-09-16T15:08:47.110Z,3.08
2022-09-16T15:11:29.948Z,2.58
2022-09-16T15:14:06.205Z,3.78
2022-09-16T15:16:34.737Z,4.65
2022-09-16T15:19:05.275Z,3.45
2022-09-16T15:21:34.953Z,4.85
2022-09-16T15:24:03.721Z,3.75
2022-09-16T15:26:39.635Z,4.95
2022-09-16T15:31:41.820Z,3.92
2022-09-16T15:34:20.965Z,3.78
2022-09-16T15:36:50.405Z,2.35
2022-09-16T15:39:23.653Z,2.38
2022-09-16T15:42:02.392Z,2.60
2022-09-16T15:44:32.754Z,2.30
2022-09-16T15:47:02.538Z,4.82
2022-09-16T15:49:32.630Z,3.80
2022-09-16T15:52:07.967Z,5.63
2022-09-16T15:54:38.886Z,3.47
2022-09-16T15:57:10.056Z,3.60
2022-09-16T15:59:41.004Z,2.17
2022-09-16T16:02:23.910Z,2.30
2022-09-16T16:04:50.838Z,2.90
2022-09-16T16:07:39.294Z,3.53
2022-09-16T16:10:17.083Z,7.70
2022-09-16T16:12:45.206Z,5.43
2022-09-16T16:15:13.067Z,5.10
2022-09-16T16:17:40.217Z,4.20
2022-09-16T16:20:07.498Z,4.13
2022-09-16T16:22:36.269Z,3.63
2022-09-16T16:25:03.402Z,4.88
2022-09-16T16:27:30.303Z,5.10
2022-09-16T16:29:57.363Z,1.52
2022-09-16T16:32:24.507Z,2.80
2022-09-16T16:34:51.661Z,6.25
2022-09-16T16:37:44.483Z,3.83
2022-09-16T16:40:08.849Z,2.75
2022-09-16T16:42:35.869Z,6.72
2022-09-16T16:45:03.530Z,2.53
2022-09-16T16:47:30.464Z,5.40
2022-09-16T16:49:59.949Z,7.30
2022-09-16T16:52:26.794Z,3.03
2022-09-16T16:54:54.014Z,6.47
2022-09-16T16:57:22.850Z,1.92
2022-09-16T16:59:49.856Z,3.30
2022-09-16T17:02:17.004Z,6.82
2022-09-16T17:04:44.465Z,2.42
2022-09-16T17:07:25.795Z,4.32
2022-09-16T17:09:53.878Z,5.22
2022-09-16T17:12:22.363Z,5.45
2022-09-16T17:14:49.597Z,7.50
2022-09-16T17:17:16.959Z,4.25
2022-09-16T17:19:44.554Z,4.50
2022-09-16T17:22:11.834Z,5.20
2022-09-16T17:24:40.942Z,3.03
2022-09-16T17:27:08.092Z,4.20
2022-09-16T17:29:36.549Z,4.68
2022-09-16T17:32:04.650Z,2.75
2022-09-16T17:34:33.323Z,6.63
2022-09-16T17:37:00.353Z,3.17
2022-09-16T17:39:29.714Z,3.33
2022-09-16T17:41:57.121Z,3.97
2022-09-16T17:44:26.627Z,3.20
2022-09-16T17:46:55.707Z,3.85
2022-09-16T17:49:24.364Z,4.22
2022-09-16T17:51:52.921Z,3.08
2022-09-16T17:54:20.684Z,5.07
2022-09-16T17:56:47.881Z,3.08
2022-09-16T17:59:19.011Z,5.78
2022-09-16T18:01:48.773Z,3.65
2022-09-16T18:04:19.891Z,4.70
2022-09-16T18:06:47.001Z,1.70
2022-09-16T18:09:14.535Z,4.55
2022-09-16T18:11:41.363Z,4.32
2022-09-16T18:14:11.544Z,4.05
2022-09-16T18:16:38.498Z,3.10
2022-09-16T18:19:05.841Z,3.13
2022-09-16T18:21:34.274Z,5.75
2022-09-16T18:24:02.530Z,4.75
2022-09-16T18:26:30.195Z,5.15
2022-09-16T18:29:12.664Z,4.30
2022-09-16T18:31:41.043Z,3.60
2022-09-16T18:34:08.274Z,1.67
2022-09-16T18:36:36.361Z,2.92
2022-09-16T18:39:04.045Z,2.53
2022-09-16T18:41:32.006Z,4.22
2022-09-16T18:44:00.315Z,1.98
2022-09-16T18:46:29.658Z,3.38
2022-09-16T18:48:57.220Z,4.28
2022-09-16T18:51:26.655Z,2.92
2022-09-16T18:53:57.059Z,5.22
2022-09-16T18:56:25.460Z,4.32
2022-09-16T18:59:17.198Z,4.32
2022-09-16T19:01:41.178Z,3.10
2022-09-16T19:04:09.648Z,2.95
2022-09-16T19:06:39.019Z,4.35
2022-09-16T19:09:13.006Z,3.53
2022-09-16T19:11:43.772Z,3.58
2022-09-16T19:14:12.077Z,3.95
2022-09-16T19:16:39.166Z,3.92
2022-09-16T19:19:10.430Z,4.10
2022-09-16T19:21:37.975Z,3.28
2022-09-16T19:24:11.228Z,4.20
2022-09-16T19:26:38.222Z,2.00
2022-09-16T19:29:08.495Z,4.50
2022-09-16T19:31:37.788Z,6.93
2022-09-16T19:34:06.713Z,4.68
2022-09-16T19:36:36.457Z,5.00
2022-09-16T19:39:04.631Z,3.80
2022-09-16T19:41:39.773Z,6.82
2022-09-16T19:44:17.264Z,5.05
2022-09-16T19:46:44.802Z,4.10
2022-09-16T19:49:17.017Z,7.55
2022-09-16T19:51:46.502Z,4.38
2022-09-16T19:54:13.223Z,5.45
2022-09-16T19:56:50.763Z,4.90
2022-09-16T19:59:18.412Z,4.97
2022-09-16T20:01:45.767Z,5.63
2022-09-16T20:04:17.740Z,6.20
2022-09-16T20:06:50.242Z,7.30
2022-09-16T20:09:19.128Z,6.88
2022-09-16T20:11:48.667Z,1.90
2022-09-16T20:14:18.204Z,6.75
2022-09-16T20:16:44.917Z,5.35
2022-09-16T20:19:14.361Z,7.18
2022-09-16T20:21:41.849Z,4.35
2022-09-16T20:24:15.008Z,7.35
2022-09-16T20:26:41.838Z,5.07
2022-09-16T20:29:10.252Z,5.53
2022-09-16T20:31:37.242Z,5.90
2022-09-16T20:36:52.779Z,4.82
2022-09-16T20:39:21.222Z,6.18
2022-09-16T20:41:48.220Z,8.30
2022-09-16T20:44:19.066Z,6.00
2022-09-16T20:46:54.795Z,5.93
2022-09-16T20:49:21.804Z,4.15
2022-09-16T20:51:48.571Z,4.45
2022-09-16T20:54:19.854Z,7.50
2022-09-16T20:56:49.337Z,7.20
2022-09-16T20:59:20.846Z,5.30
2022-09-16T21:01:47.892Z,5.00
2022-09-16T21:04:21.202Z,5.40
2022-09-16T21:06:48.439Z,6.40
2022-09-16T21:09:15.872Z,4.55
2022-09-16T21:11:43.422Z,3.78
2022-09-16T21:14:17.702Z,4.80
2022-09-16T21:16:46.354Z,6.68
2022-09-16T21:19:15.625Z,9.65
2022-09-16T21:21:45.223Z,4.07
2022-09-16T21:24:23.205Z,5.72
2022-09-16T21:27:01.913Z,6.85
2022-09-16T21:29:37.773Z,6.97
2022-09-16T21:32:17.791Z,8.20
2022-09-16T21:34:46.629Z,6.00
2022-09-16T21:37:13.453Z,4.75
2022-09-16T21:39:48.923Z,5.00
2022-09-16T21:42:20.354Z,5.43
2022-09-16T21:44:56.506Z,5.68
2022-09-16T21:47:45.205Z,5.15
2022-09-16T21:50:14.610Z,7.75
2022-09-16T21:52:44.477Z,6.85
2022-09-16T21:55:17.087Z,7.47
2022-09-16T21:57:46.486Z,7.80
2022-09-16T22:00:16.053Z,5.47
2022-09-16T22:02:46.166Z,10.13
2022-09-16T22:05:18.967Z,4.60
2022-09-16T22:07:45.947Z,2.63
2022-09-16T22:10:23.086Z,4.85
2022-09-16T22:12:55.013Z,7.20
2022-09-16T22:15:27.773Z,5.72
2022-09-16T22:17:56.052Z,5.40
2022-09-16T22:20:23.362Z,7.15
2022-09-16T22:22:56.171Z,5.65
2022-09-16T22:25:25.573Z,4.78
2022-09-16T22:27:53.993Z,8.52
2022-09-16T22:30:23.814Z,7.40
2022-09-16T22:32:51.909Z,8.73
2022-09-16T22:35:53.579Z,4.60
2022-09-16T22:38:10.682Z,5.75
2022-09-16T22:40:43.602Z,6.82
2022-09-16T22:43:13.084Z,5.43
2022-09-16T22:45:42.576Z,6.90
2022-09-16T22:48:09.316Z,9.23
2022-09-16T22:50:37.595Z,7.78
2022-09-16T22:53:04.439Z,6.35
2022-09-16T22:55:33.568Z,5.57
2022-09-16T22:58:02.705Z,7.32
2022-09-16T23:00:29.362Z,8.93
2022-09-16T23:02:56.245Z,11.15
2022-09-16T23:05:22.902Z,4.85
2022-09-16T23:08:08.561Z,10.63
2022-09-16T23:10:42.373Z,9.80
2022-09-16T23:13:16.386Z,8.05
2022-09-16T23:15:43.255Z,7.72
2022-09-16T23:18:30.622Z,6.78
2022-09-16T23:20:58.824Z,7.63
2022-09-16T23:23:27.515Z,5.22
2022-09-16T23:25:54.864Z,6.30
2022-09-16T23:28:25.941Z,4.63
2022-09-16T23:31:08.345Z,5.10
2022-09-16T23:33:35.571Z,7.40
2022-09-16T23:36:09.488Z,9.25
2022-09-16T23:38:50.056Z,10.23
2022-09-16T23:41:23.537Z,6.57
2022-09-16T23:43:51.019Z,6.40
2022-09-16T23:46:34.935Z,7.63
2022-09-16T23:49:06.268Z,6.53
2022-09-16T23:51:35.604Z,4.95
2022-09-16T23:54:03.852Z,8.63
2022-09-16T23:56:30.727Z,7.97
2022-09-16T23:59:00.989Z,8.48
